• Join FlightAware (Why Join?)
  • Login
  • US Flag 
10:22PM EDT


 

Airport Tracker/Info


-or-


 

Live Flight TrackerFlight Track Log ✈ UAL4335 ✈ 23-Feb-2014 ✈ KCMH - KEWR

Flight Track Log - Related Links

Times and Time Zones

All times are in EST time to prevent confusion due to time zone crossing. See the UAL4335 flight status page for this flight to view local times or setup timezone preferences in your user account.

Time Position Orientation Groundspeed Altitude Reporting Facility
EST Latitude Longitude Course Direction KTS MPH feet Rate Location/Type
01:23PM 40.0039 -82.9131 21° North 132 152 1,400  Level Indianapolis Center
01:23PM 40.0044 -82.9197 276° West 138 159 1,800 2,040 Climbing Indianapolis Center
01:24PM 40.0044 -82.9514 270° West 149 171 2,900 2,100 Climbing Indianapolis Center
01:24PM 40.0067 -82.9792 276° West 165 190 4,000 2,100 Climbing Indianapolis Center
01:25PM 40.0253 -83.0203 301° West 202 232 5,500 1,800 Climbing Indianapolis Center
01:25PM 40.0411 -83.0189 North 200 230 5,900 1,740 Climbing Indianapolis Center
01:26PM 40.1017 -82.9811 26° Northeast 255 293 7,800 1,860 Climbing Indianapolis Center
01:27PM 40.3545 -82.6207 25° Northeast  Level FlightAware Approximate
01:27PM 40.1592 -82.9117 43° Northeast 278 320 9,800  Level Indianapolis Center
01:28PM 40.4531 -82.5651 21° North  Level FlightAware Approximate
01:28PM 40.2242 -82.8319 43° Northeast 315 362 10,700  Level Indianapolis Center
01:29PM 40.3017 -82.7364 43° Northeast 354 407 11,800 1,080 Climbing Indianapolis Center
01:30PM 40.3800 -82.6383 44° Northeast 381 438 13,000 1,260 Climbing Indianapolis Center
01:32PM 40.4881 -82.5569 30° Northeast 385 443 14,500 1,260 Climbing Indianapolis Center
01:33PM 40.5928 -82.5106 19° North 391 450 15,700 1,140 Climbing Indianapolis Center
01:34PM 40.6983 -82.4619 19° North 393 452 16,900 1,020 Climbing Indianapolis Center
01:35PM 40.8075 -82.4131 19° North 404 465 17,900 960 Climbing Indianapolis Center
01:36PM 40.9189 -82.3631 19° North 412 474 18,900 1,020 Climbing Indianapolis Center
01:36PM 40.9753 -82.3381 19° North 416 479 19,500 1,080 Climbing Cleveland Center
01:37PM 41.0892 -82.2858 19° North 422 486 20,600 1,140 Climbing Cleveland Center
01:38PM 41.2028 -82.2336 19° North 428 493 21,900 1,200 Climbing Cleveland Center
01:39PM 41.3164 -82.1789 20° North 427 491 23,100 1,140 Climbing Cleveland Center
01:40PM 41.3933 -82.0378 54° Northeast 475 547 24,300 1,080 Climbing Cleveland Center
01:41PM 41.4431 -81.8664 69° East 485 558 25,400 1,080 Climbing Cleveland Center
01:42PM 41.4928 -81.6933 69° East 485 558 26,600 720 Climbing Cleveland Center
01:43PM 41.5419 -81.5183 69° East 489 563 27,000 180 Climbing Cleveland Center
01:44PM 41.5944 -81.3356 69° East 515 593 27,000  Level Cleveland Center
01:45PM 41.6467 -81.1472 70° East 530 610 27,000  Level Cleveland Center
01:46PM 41.7092 -80.9233 69° East 542 624 27,000  Level Cleveland Center
01:47PM 41.7422 -80.7225 77° East 550 633 27,000  Level Cleveland Center
01:49PM 41.7233 -80.5164 97° East 551 634 27,000  Level Cleveland Center
01:50PM 41.7064 -80.3131 96° East 548 631 27,000  Level Cleveland Center
01:51PM 41.6881 -80.1075 97° East 551 634 27,000  Level Cleveland Center
01:52PM 41.6706 -79.9042 97° East 549 632 27,000  Level Cleveland Center
01:53PM 41.6506 -79.7008 97° East 549 632 27,000  Level Cleveland Center
01:54PM 41.6322 -79.4992 97° East 550 633 27,000  Level Cleveland Center
01:55PM 41.6125 -79.2956 97° East 551 634 27,000  Level Cleveland Center
01:56PM 41.5892 -79.0542 97° East 547 629 27,000  Level Cleveland Center
01:57PM 41.5675 -78.8503 98° East 552 635 27,000  Level Cleveland Center
01:58PM 41.5475 -78.6489 97° East 552 635 27,000  Level Cleveland Center
01:59PM 41.5261 -78.4458 98° East 551 634 27,000  Level Cleveland Center
02:00PM 41.5044 -78.2433 98° East 551 634 27,000  Level Cleveland Center
02:01PM 41.4867 -78.0686 98° East 554 638 27,000  Level New York Center
02:02PM 41.4633 -77.8694 99° East 568 654 27,000  Level New York Center
02:03PM 41.4417 -77.6706 98° East 556 640 27,000  Level New York Center
02:04PM 41.4106 -77.4903 103° East 551 634 27,000  Level New York Center
02:05PM 41.3722 -77.2789 104° East 545 627 27,000 -120 Level New York Center
02:06PM 41.3369 -77.0822 103° East 540 621 26,800 -1,020 Descending New York Center
02:07PM 41.3011 -76.8936 104° East 540 621 25,000 -1,800 Descending New York Center
02:08PM 41.2689 -76.7086 103° East 535 616 23,300 -1,800 Descending New York Center
02:09PM 41.2372 -76.5431 104° East 500 575 21,400 -1,920 Descending New York Center
02:10PM 41.2017 -76.3744 106° East 474 545 19,500 -1,740 Descending New York Center
02:11PM 41.1753 -76.2233 103° East 469 540 18,000 -1,080 Descending New York Center
02:12PM 41.1400 -76.0414 104° East 460 529 17,400 -1,020 Descending New York Center
02:13PM 41.1006 -75.8953 110° East 442 509 16,000 -1,740 Descending New York Center
02:14PM 41.0644 -75.7631 110° East 429 494 14,000 -1,500 Descending New York Center
02:15PM 41.0247 -75.6172 110° East 419 482 13,000 -840 Descending New York Center
02:16PM 40.9808 -75.4656 111° Southeast 413 475 12,400 -1,200 Descending New York Center
02:17PM 40.9461 -75.3422 110° East 378 435 10,600 -1,500 Descending New York Center
02:18PM 40.9147 -75.2331 111° Southeast 342 394 9,500 -1,200 Descending New York Center
02:19PM 40.8892 -75.1408 110° East 297 342 8,200 -1,200 Descending New York Center
02:20PM 40.8594 -75.0403 111° Southeast 292 336 7,200 -600 Descending New York Center
02:21PM 40.8281 -74.9286 110° East 298 343 7,000 -420 Descending New York Center
02:22PM 40.8417 -74.8333 79° East 274 315 6,400 -540 Descending New York Center
02:23PM 40.8675 -74.7525 67° East 262 302 6,000 -420 Descending New York Center
02:24PM 40.8958 -74.6528 69° East 262 302 5,600 -540 Descending New York Center
02:25PM 40.9192 -74.5717 69° East 262 302 5,000 -300 Descending New York Center
02:26PM 40.9433 -74.4714 72° East 262 302 5,000  Level New York Center
02:27PM 40.9583 -74.3897 76° East 262 302 5,000  Level New York Center
02:28PM 40.9739 -74.2861 79° East 257 296 5,000 -180 Level New York Center
02:29PM 40.9889 -74.2044 76° East 257 296 4,700 -540 Descending New York Center
02:30PM 40.9808 -74.1217 97° East 252 290 4,000 -540 Descending New York Center
02:31PM 40.9253 -74.0969 161° South 190 219 3,700 -540 Descending New York Center
02:32PM 40.8797 -74.0892 173° South 173 199 3,000 -600 Descending New York Center
02:33PM 40.8256 -74.0839 176° South 178 205 2,500 -600 Descending New York Center
02:34PM 40.7667 -74.1167 203° Southwest 169 194 1,600 -780 Descending New York TRACON
02:35PM 40.7333 -74.1333 201° Southwest 135 155 800 -840 Descending New York TRACON